createdAt,value
2018-04-12T00:00:04.373Z,8.30
2018-04-12T00:02:30.958Z,9.23
2018-04-12T00:04:57.540Z,10.40
2018-04-12T00:07:24.105Z,11.20
2018-04-12T00:09:50.684Z,8.37
2018-04-12T00:12:17.253Z,10.90
2018-04-12T00:14:43.842Z,9.63
2018-04-12T00:17:10.410Z,9.63
2018-04-12T00:19:36.985Z,7.80
2018-04-12T00:22:03.558Z,9.20
2018-04-12T00:24:30.151Z,9.67
2018-04-12T00:26:56.730Z,12.10
2018-04-12T00:29:23.305Z,10.13
2018-04-12T00:31:49.881Z,10.40
2018-04-12T00:34:16.457Z,10.23
2018-04-12T00:36:43.029Z,10.10
2018-04-12T00:39:09.605Z,9.27
2018-04-12T00:41:36.182Z,6.70
2018-04-12T00:44:02.757Z,8.93
2018-04-12T00:46:29.325Z,10.37
2018-04-12T00:48:55.925Z,8.83
2018-04-12T00:51:22.505Z,13.10
2018-04-12T00:53:55.084Z,8.60
2018-04-12T00:56:21.660Z,10.60
2018-04-12T00:58:48.227Z,9.20
2018-04-12T01:01:14.805Z,8.53
2018-04-12T01:03:41.374Z,11.00
2018-04-12T01:06:07.948Z,12.27
2018-04-12T01:08:34.519Z,12.07
2018-04-12T01:11:01.090Z,14.67
2018-04-12T01:13:27.661Z,11.60
2018-04-12T01:15:54.240Z,12.77
2018-04-12T01:18:20.809Z,11.60
2018-04-12T01:20:47.385Z,13.10
2018-04-12T01:23:13.985Z,11.17
2018-04-12T01:25:40.561Z,12.10
2018-04-12T01:28:07.141Z,10.60
2018-04-12T01:30:33.709Z,10.07
2018-04-12T01:33:06.021Z,11.10
2018-04-12T01:35:32.597Z,10.20
2018-04-12T01:37:59.174Z,8.77
2018-04-12T01:40:26.484Z,9.07
2018-04-12T01:42:53.067Z,7.40
2018-04-12T01:45:19.633Z,10.80
2018-04-12T01:47:46.562Z,8.63
2018-04-12T01:50:13.130Z,7.43
2018-04-12T01:52:39.710Z,11.53
2018-04-12T01:55:06.290Z,11.90
2018-04-12T01:57:32.867Z,12.73
2018-04-12T01:59:59.437Z,10.50
2018-04-12T02:02:26.005Z,6.70
2018-04-12T02:04:52.609Z,6.93
2018-04-12T02:07:19.177Z,8.20
2018-04-12T02:09:45.746Z,6.70
2018-04-12T02:12:12.317Z,9.47
2018-04-12T02:14:38.886Z,8.90
2018-04-12T02:17:05.461Z,7.33
2018-04-12T02:19:32.035Z,8.57
2018-04-12T02:21:58.685Z,9.17
2018-04-12T02:24:25.249Z,9.50
2018-04-12T02:26:51.833Z,8.00
2018-04-12T02:29:18.389Z,6.17
2018-04-12T02:31:44.968Z,8.60
2018-04-12T02:34:11.546Z,10.20
2018-04-12T02:36:38.121Z,7.00
2018-04-12T02:39:04.691Z,9.37
2018-04-12T02:41:32.133Z,7.83
2018-04-12T02:43:58.719Z,7.50
2018-04-12T02:46:25.266Z,8.50
2018-04-12T02:48:51.834Z,7.50
2018-04-12T02:51:18.420Z,8.00
2018-04-12T02:53:45.005Z,12.67
2018-04-12T02:56:11.599Z,13.93
2018-04-12T02:58:38.165Z,8.60
2018-04-12T03:01:04.736Z,6.70
2018-04-12T03:03:31.314Z,7.30
2018-04-12T03:05:57.893Z,13.17
2018-04-12T03:08:25.014Z,6.53
2018-04-12T03:10:51.582Z,5.30
2018-04-12T03:13:18.154Z,7.33
2018-04-12T03:15:44.728Z,6.77
2018-04-12T03:18:11.298Z,9.93
2018-04-12T03:20:37.897Z,10.77
2018-04-12T03:23:04.465Z,7.40
2018-04-12T03:25:31.058Z,9.27
2018-04-12T03:27:57.617Z,6.03
2018-04-12T03:30:24.185Z,9.93
2018-04-12T03:32:50.758Z,9.70
2018-04-12T03:35:17.333Z,13.50
2018-04-12T03:37:43.918Z,9.03
2018-04-12T03:40:10.501Z,9.03
2018-04-12T03:42:37.390Z,11.50
2018-04-12T03:45:03.957Z,9.57
2018-04-12T03:47:30.532Z,12.30
2018-04-12T03:49:57.106Z,11.13
2018-04-12T03:52:23.678Z,11.53
2018-04-12T03:54:50.354Z,10.40
2018-04-12T03:57:16.938Z,10.60
2018-04-12T03:59:43.513Z,13.00
2018-04-12T04:02:10.173Z,12.20
2018-04-12T04:04:36.741Z,9.63
2018-04-12T04:07:03.314Z,9.93
2018-04-12T04:09:29.904Z,11.60
2018-04-12T04:11:56.478Z,8.00
2018-04-12T04:14:28.891Z,9.90
2018-04-12T04:17:01.261Z,9.17
2018-04-12T04:19:33.737Z,10.53
2018-04-12T04:22:00.318Z,10.43
2018-04-12T04:24:26.887Z,12.80
2018-04-12T04:26:53.457Z,13.93
2018-04-12T04:29:20.040Z,7.97
2018-04-12T04:31:46.667Z,9.00
2018-04-12T04:34:13.205Z,13.40
2018-04-12T04:36:39.777Z,11.10
2018-04-12T04:39:06.347Z,10.53
2018-04-12T04:41:32.925Z,14.97
2018-04-12T04:43:59.493Z,17.30
2018-04-12T04:46:26.076Z,12.77
2018-04-12T04:48:52.641Z,9.70
2018-04-12T04:51:19.218Z,12.27
2018-04-12T04:53:45.790Z,14.17
2018-04-12T04:56:12.374Z,13.13
2018-04-12T04:58:38.951Z,10.47
2018-04-12T05:01:05.527Z,10.93
2018-04-12T05:03:32.094Z,11.30
2018-04-12T05:05:58.685Z,11.90
2018-04-12T05:08:25.264Z,12.53
2018-04-12T05:10:51.829Z,10.60
2018-04-12T05:13:18.405Z,11.30
2018-04-12T05:15:44.980Z,11.83
2018-04-12T05:18:11.566Z,18.53
2018-04-12T05:20:38.134Z,10.80
2018-04-12T05:23:04.751Z,12.17
2018-04-12T05:25:31.329Z,13.93
2018-04-12T05:27:57.910Z,16.93
2018-04-12T05:30:24.485Z,14.30
2018-04-12T05:32:51.056Z,11.50
2018-04-12T05:35:17.676Z,16.03
2018-04-12T05:37:44.253Z,11.87
2018-04-12T05:40:10.834Z,12.03
2018-04-12T05:42:37.400Z,15.87
2018-04-12T05:45:03.973Z,13.50
2018-04-12T05:47:30.548Z,13.77
2018-04-12T05:49:57.127Z,13.63
2018-04-12T05:52:23.741Z,11.73
2018-04-12T05:54:50.355Z,13.97
2018-04-12T05:57:16.933Z,13.30
2018-04-12T05:59:43.505Z,14.90
2018-04-12T06:02:10.461Z,13.20
2018-04-12T06:04:37.041Z,17.70
2018-04-12T06:07:03.609Z,18.43
2018-04-12T06:09:30.185Z,17.03
2018-04-12T06:11:56.914Z,17.23
2018-04-12T06:14:23.507Z,14.10
2018-04-12T06:16:50.082Z,16.07
2018-04-12T06:19:16.661Z,11.97
2018-04-12T06:24:16.422Z,16.27
2018-04-12T06:26:43.012Z,15.10
2018-04-12T06:29:09.613Z,18.30
2018-04-12T06:31:36.171Z,18.17
2018-04-12T06:34:02.753Z,15.30
2018-04-12T06:36:29.325Z,15.70
2018-04-12T06:38:56.213Z,17.37
2018-04-12T06:41:22.805Z,16.83
2018-04-12T06:43:49.403Z,17.20
2018-04-12T06:46:15.989Z,17.37
2018-04-12T06:48:42.558Z,20.03
2018-04-12T06:51:09.222Z,18.53
2018-04-12T06:53:35.777Z,22.40
2018-04-12T06:56:02.348Z,18.13
2018-04-12T06:58:28.925Z,19.90
2018-04-12T07:00:55.501Z,17.90
2018-04-12T07:03:22.393Z,19.10
2018-04-12T07:05:49.005Z,20.90
2018-04-12T07:08:15.545Z,20.17
2018-04-12T07:10:42.162Z,22.23
2018-04-12T07:13:08.721Z,22.10
2018-04-12T07:15:35.322Z,27.60
2018-04-12T07:18:01.905Z,20.87
2018-04-12T07:20:28.481Z,23.50
2018-04-12T07:22:55.066Z,37.00
2018-04-12T07:25:21.636Z,18.90
2018-04-12T07:27:48.221Z,23.83
2018-04-12T07:30:14.802Z,22.17
2018-04-12T07:32:41.466Z,19.00
2018-04-12T07:35:08.097Z,24.00
2018-04-12T07:37:34.637Z,20.67
2018-04-12T07:40:01.226Z,21.37
2018-04-12T07:42:27.793Z,20.53
2018-04-12T07:44:54.370Z,21.50
2018-04-12T07:47:20.955Z,21.83
2018-04-12T07:49:47.532Z,18.80
2018-04-12T07:52:14.121Z,23.93
2018-04-12T07:54:40.693Z,20.67
2018-04-12T07:57:07.269Z,21.60
2018-04-12T07:59:33.869Z,25.07
2018-04-12T08:02:00.501Z,20.87
2018-04-12T08:04:27.051Z,25.27
2018-04-12T08:06:53.631Z,27.60
2018-04-12T08:09:20.212Z,24.00
2018-04-12T08:11:46.790Z,23.83
2018-04-12T08:14:13.361Z,25.20
2018-04-12T08:16:40.242Z,28.43
2018-04-12T08:19:06.818Z,29.97
2018-04-12T08:21:33.393Z,27.60
2018-04-12T08:23:59.981Z,28.13
2018-04-12T08:26:26.578Z,25.00
2018-04-12T08:28:53.172Z,29.40
2018-04-12T08:31:19.737Z,34.10
2018-04-12T08:33:46.312Z,33.10
2018-04-12T08:36:12.894Z,43.13
2018-04-12T08:38:39.473Z,36.93
2018-04-12T08:41:06.328Z,37.33
2018-04-12T08:43:32.897Z,39.93
2018-04-12T08:45:59.501Z,47.27
2018-04-12T08:48:26.054Z,44.50
2018-04-12T08:50:52.625Z,42.07
2018-04-12T08:53:19.213Z,42.80
2018-04-12T08:55:45.788Z,45.50
2018-04-12T08:58:12.364Z,46.63
2018-04-12T09:00:38.937Z,42.70
2018-04-12T09:03:05.508Z,49.23
2018-04-12T09:05:32.163Z,44.00
2018-04-12T09:07:58.748Z,50.23
2018-04-12T09:10:25.318Z,45.87
2018-04-12T09:12:51.900Z,48.30
2018-04-12T09:15:18.562Z,57.93
2018-04-12T09:17:45.142Z,46.17
2018-04-12T09:20:11.745Z,45.67
2018-04-12T09:22:38.322Z,50.03
2018-04-12T09:25:04.881Z,43.90
2018-04-12T09:27:31.461Z,45.73
2018-04-12T09:29:58.058Z,50.30
2018-04-12T09:32:24.633Z,52.37
2018-04-12T09:34:51.214Z,51.83
2018-04-12T09:37:17.798Z,52.00
2018-04-12T09:39:44.374Z,46.57
2018-04-12T09:42:11.000Z,53.80
2018-04-12T09:44:37.546Z,48.60
2018-04-12T09:47:04.126Z,49.53
2018-04-12T09:49:30.708Z,48.90
2018-04-12T09:51:57.278Z,43.37
2018-04-12T09:54:23.865Z,46.87
2018-04-12T09:56:50.450Z,44.83
2018-04-12T09:59:17.045Z,49.90
2018-04-12T10:01:49.290Z,51.47
2018-04-12T10:04:16.618Z,45.03
2018-04-12T10:06:43.193Z,43.77
2018-04-12T10:09:14.646Z,41.30
2018-04-12T10:11:41.221Z,43.97
2018-04-12T10:14:07.814Z,36.67
2018-04-12T10:16:34.391Z,43.83
2018-04-12T10:19:00.958Z,44.13
2018-04-12T10:21:27.533Z,41.17
2018-04-12T10:23:54.105Z,43.13
2018-04-12T10:26:20.692Z,41.07
2018-04-12T10:28:48.247Z,39.43
2018-04-12T10:31:14.817Z,37.23
2018-04-12T10:33:41.399Z,39.73
2018-04-12T10:36:07.969Z,42.63
2018-04-12T10:38:34.559Z,37.37
2018-04-12T10:41:01.133Z,40.93
2018-04-12T10:43:27.713Z,38.20
2018-04-12T10:45:54.293Z,38.23
2018-04-12T10:48:20.876Z,37.70
2018-04-12T10:50:47.501Z,35.50
2018-04-12T10:53:14.072Z,38.20
2018-04-12T10:55:40.651Z,35.13
2018-04-12T10:58:07.233Z,35.40
2018-04-12T11:00:33.810Z,39.30
2018-04-12T11:03:00.411Z,36.77
2018-04-12T11:05:26.981Z,37.53
2018-04-12T11:07:53.557Z,35.20
2018-04-12T11:10:20.143Z,35.67
2018-04-12T11:12:46.713Z,35.57
2018-04-12T11:15:13.313Z,34.47
2018-04-12T11:17:39.991Z,36.93
2018-04-12T11:20:06.558Z,38.93
2018-04-12T11:22:33.165Z,34.57
2018-04-12T11:24:59.741Z,36.90
2018-04-12T11:27:26.335Z,41.80
2018-04-12T11:29:52.935Z,41.43
2018-04-12T11:32:19.477Z,46.47
2018-04-12T11:34:46.057Z,38.63
2018-04-12T11:37:12.649Z,39.80
2018-04-12T11:39:39.234Z,38.07
2018-04-12T11:42:05.805Z,39.27
2018-04-12T11:44:32.380Z,34.83
2018-04-12T11:46:58.969Z,36.57
2018-04-12T11:49:25.563Z,35.70
2018-04-12T11:51:52.156Z,39.83
2018-04-12T11:54:18.729Z,35.43
2018-04-12T11:56:45.374Z,32.83
2018-04-12T11:59:11.955Z,33.77
2018-04-12T12:01:38.589Z,33.30
2018-04-12T12:04:05.135Z,35.70
2018-04-12T12:06:31.701Z,32.03
2018-04-12T12:08:58.274Z,35.30
2018-04-12T12:11:24.856Z,34.30
2018-04-12T12:13:51.449Z,31.27
2018-04-12T12:16:18.104Z,31.03
2018-04-12T12:18:44.681Z,38.13
2018-04-12T12:21:11.262Z,30.00
2018-04-12T12:23:37.841Z,36.83
2018-04-12T12:26:04.418Z,31.53
2018-04-12T12:28:31.050Z,35.83
2018-04-12T12:30:57.576Z,34.30
2018-04-12T12:33:24.168Z,35.03
2018-04-12T12:35:50.745Z,32.20
2018-04-12T12:38:17.317Z,36.27
2018-04-12T12:40:43.905Z,39.73
2018-04-12T12:43:10.476Z,34.70
2018-04-12T12:45:37.049Z,34.33
2018-04-12T12:48:03.666Z,34.20
2018-04-12T12:50:30.232Z,31.83
2018-04-12T12:52:56.810Z,37.33
2018-04-12T12:55:23.393Z,33.40
2018-04-12T12:57:49.973Z,34.60
2018-04-12T13:00:16.547Z,32.77
2018-04-12T13:02:43.138Z,34.93
2018-04-12T13:05:09.725Z,34.20
2018-04-12T13:07:36.297Z,34.60
2018-04-12T13:10:02.974Z,31.37
2018-04-12T13:12:29.532Z,34.63
2018-04-12T13:14:56.190Z,35.77
2018-04-12T13:17:22.757Z,32.70
2018-04-12T13:19:49.345Z,31.43
2018-04-12T13:22:15.917Z,28.80
2018-04-12T13:24:42.542Z,24.27
2018-04-12T13:27:09.129Z,26.90
2018-04-12T13:29:35.711Z,25.93
2018-04-12T13:32:02.319Z,26.43
2018-04-12T13:34:28.889Z,24.20
2018-04-12T13:36:55.482Z,31.17
2018-04-12T13:39:22.068Z,25.90
2018-04-12T13:41:48.653Z,31.57
2018-04-12T13:44:15.247Z,23.60
2018-04-12T13:46:41.800Z,22.83
2018-04-12T13:49:08.385Z,26.13
2018-04-12T13:51:34.957Z,23.60
2018-04-12T13:54:01.568Z,20.93
2018-04-12T13:56:28.279Z,19.90
2018-04-12T13:58:54.845Z,19.63
2018-04-12T14:01:21.418Z,27.23
2018-04-12T14:03:48.026Z,19.63
2018-04-12T14:06:14.582Z,18.70
2018-04-12T14:08:41.165Z,21.90
2018-04-12T14:11:07.747Z,22.63
2018-04-12T14:13:34.322Z,30.63
2018-04-12T14:16:00.913Z,22.17
2018-04-12T14:18:27.494Z,30.00
2018-04-12T14:20:54.077Z,19.80
2018-04-12T14:23:20.649Z,23.80
2018-04-12T14:25:47.228Z,20.30
2018-04-12T14:28:13.815Z,20.20
2018-04-12T14:30:40.393Z,20.80
2018-04-12T14:33:06.972Z,16.83
2018-04-12T14:35:33.560Z,19.13
2018-04-12T14:38:00.390Z,21.97
2018-04-12T14:40:26.962Z,17.70
2018-04-12T14:42:53.533Z,19.40
2018-04-12T14:45:20.121Z,21.27
2018-04-12T14:47:46.694Z,18.53
2018-04-12T14:50:13.273Z,17.73
2018-04-12T14:52:39.864Z,21.83
2018-04-12T14:55:06.445Z,16.20
2018-04-12T14:57:33.022Z,15.43
2018-04-12T14:59:59.597Z,16.53
2018-04-12T15:02:26.181Z,17.63
2018-04-12T15:04:52.757Z,11.87
2018-04-12T15:07:19.333Z,12.57
2018-04-12T15:09:45.912Z,13.10
2018-04-12T15:12:12.490Z,14.87
2018-04-12T15:14:39.069Z,13.43
2018-04-12T15:17:05.640Z,17.97
2018-04-12T15:19:32.208Z,12.17
2018-04-12T15:21:58.785Z,14.40
2018-04-12T15:24:25.368Z,12.93
2018-04-12T15:26:51.945Z,12.77
2018-04-12T15:29:18.513Z,13.10
2018-04-12T15:31:45.090Z,14.27
2018-04-12T15:34:11.663Z,14.00
2018-04-12T15:36:38.229Z,12.77
2018-04-12T15:39:04.801Z,16.47
2018-04-12T15:41:31.387Z,16.13
2018-04-12T15:43:58.074Z,10.50
2018-04-12T15:46:24.633Z,12.97
2018-04-12T15:48:51.218Z,14.47
2018-04-12T15:51:17.794Z,13.80
2018-04-12T15:53:44.358Z,17.57
2018-04-12T15:56:10.938Z,16.07
2018-04-12T15:58:37.509Z,10.10
2018-04-12T16:01:04.091Z,10.80
2018-04-12T16:03:30.653Z,17.53
2018-04-12T16:05:57.233Z,12.63
2018-04-12T16:08:23.804Z,12.93
2018-04-12T16:10:50.374Z,10.40
2018-04-12T16:13:16.949Z,15.13
2018-04-12T16:15:43.522Z,13.40
2018-04-12T16:18:10.093Z,13.90
2018-04-12T16:20:36.663Z,14.83
2018-04-12T16:23:03.238Z,16.37
2018-04-12T16:25:29.813Z,13.70
2018-04-12T16:27:56.385Z,12.00
2018-04-12T16:30:22.967Z,11.53
2018-04-12T16:32:49.532Z,14.50
2018-04-12T16:35:16.096Z,11.90
2018-04-12T16:37:42.669Z,12.40
2018-04-12T16:40:09.241Z,10.77
2018-04-12T16:42:35.817Z,20.37
2018-04-12T16:45:02.391Z,13.20
2018-04-12T16:47:28.961Z,9.27
2018-04-12T16:49:55.529Z,15.03
2018-04-12T16:52:22.094Z,9.57
2018-04-12T16:54:48.662Z,9.37
2018-04-12T16:57:15.232Z,11.70
2018-04-12T16:59:41.821Z,10.90
2018-04-12T17:02:08.385Z,12.33
2018-04-12T17:04:34.977Z,9.10
2018-04-12T17:07:01.545Z,11.37
2018-04-12T17:09:28.114Z,7.30
2018-04-12T17:11:54.693Z,11.87
2018-04-12T17:14:21.265Z,12.13
2018-04-12T17:16:47.841Z,10.77
2018-04-12T17:19:14.411Z,10.90
2018-04-12T17:21:40.986Z,11.47
2018-04-12T17:24:07.554Z,10.50
2018-04-12T17:26:34.121Z,14.57
2018-04-12T17:29:00.707Z,13.30
2018-04-12T17:31:27.257Z,8.67
2018-04-12T17:33:53.836Z,10.10
2018-04-12T17:36:20.409Z,9.77
2018-04-12T17:38:47.254Z,9.03
2018-04-12T17:41:13.830Z,12.03
2018-04-12T17:43:40.458Z,11.20
2018-04-12T17:46:07.085Z,9.73
2018-04-12T17:48:33.663Z,13.60
2018-04-12T17:51:00.257Z,10.63
2018-04-12T17:53:26.833Z,8.77
2018-04-12T17:55:53.905Z,10.90
2018-04-12T17:58:20.501Z,7.60
2018-04-12T18:00:47.077Z,8.93
2018-04-12T18:03:13.682Z,7.30
2018-04-12T18:05:40.460Z,10.73
2018-04-12T18:08:07.086Z,7.67
2018-04-12T18:10:33.649Z,8.40
2018-04-12T18:13:00.253Z,7.73
2018-04-12T18:15:26.847Z,7.10
2018-04-12T18:17:53.384Z,7.77
2018-04-12T18:20:19.965Z,11.57
2018-04-12T18:22:46.533Z,9.40
2018-04-12T18:25:13.109Z,6.83
2018-04-12T18:27:39.674Z,8.00
2018-04-12T18:30:06.262Z,29.23
2018-04-12T18:32:32.921Z,28.30
2018-04-12T18:34:59.442Z,20.30
2018-04-12T18:37:26.022Z,18.03
2018-04-12T18:39:52.597Z,15.90
2018-04-12T18:42:19.173Z,17.93
2018-04-12T18:44:45.744Z,11.20
2018-04-12T18:47:12.322Z,10.43
2018-04-12T18:49:38.921Z,12.90
2018-04-12T18:52:05.485Z,14.87
2018-04-12T18:54:32.065Z,12.40
2018-04-12T18:56:58.622Z,7.97
2018-04-12T18:59:25.205Z,10.50
2018-04-12T19:01:51.797Z,7.90
2018-04-12T19:04:18.377Z,12.00
2018-04-12T19:06:44.937Z,9.77
2018-04-12T19:09:11.509Z,7.53
2018-04-12T19:11:38.070Z,9.70
2018-04-12T19:14:04.633Z,8.67
2018-04-12T19:16:31.209Z,15.03
2018-04-12T19:18:57.782Z,12.00
2018-04-12T19:21:24.361Z,10.17
2018-04-12T19:23:50.949Z,10.27
2018-04-12T19:26:17.600Z,8.00
2018-04-12T19:28:44.167Z,8.40
2018-04-12T19:31:10.752Z,8.87
2018-04-12T19:33:37.318Z,13.53
2018-04-12T19:36:03.887Z,7.73
2018-04-12T19:38:30.458Z,9.70
2018-04-12T19:40:57.026Z,7.67
2018-04-12T19:43:23.601Z,9.70
2018-04-12T19:45:50.170Z,9.23
2018-04-12T19:48:16.736Z,8.50
2018-04-12T19:50:43.318Z,7.97
2018-04-12T19:53:09.886Z,11.40
2018-04-12T19:55:36.461Z,11.87
2018-04-12T19:58:03.033Z,8.73
2018-04-12T20:00:29.598Z,8.90
2018-04-12T20:02:56.173Z,7.10
2018-04-12T20:05:22.743Z,9.57
2018-04-12T20:07:49.307Z,8.37
2018-04-12T20:10:15.882Z,8.40
2018-04-12T20:12:42.469Z,6.43
2018-04-12T20:15:09.045Z,7.70
2018-04-12T20:17:35.610Z,7.50
2018-04-12T20:20:02.192Z,7.83
2018-04-12T20:22:28.813Z,8.73
2018-04-12T20:24:55.328Z,12.20
2018-04-12T20:27:21.901Z,10.00
2018-04-12T20:29:48.473Z,12.07
2018-04-12T20:32:15.041Z,8.70
2018-04-12T20:34:41.610Z,8.97
2018-04-12T20:37:08.185Z,7.70
2018-04-12T20:39:34.779Z,7.10
2018-04-12T20:42:01.333Z,7.03
2018-04-12T20:44:27.897Z,8.07
2018-04-12T20:46:54.460Z,7.30
2018-04-12T20:49:21.034Z,7.53
2018-04-12T20:51:47.603Z,6.90
2018-04-12T20:54:14.180Z,9.93
2018-04-12T20:56:40.741Z,6.90
2018-04-12T20:59:07.313Z,7.87
2018-04-12T21:01:33.905Z,8.33
2018-04-12T21:04:00.487Z,6.73
2018-04-12T21:06:27.057Z,9.07
2018-04-12T21:08:53.616Z,6.47
2018-04-12T21:11:20.200Z,7.20
2018-04-12T21:13:46.765Z,7.57
2018-04-12T21:16:13.342Z,11.40
2018-04-12T21:18:39.909Z,8.27
2018-04-12T21:21:06.485Z,10.63
2018-04-12T21:23:33.053Z,8.40
2018-04-12T21:25:59.639Z,7.13
2018-04-12T21:28:26.205Z,7.73
2018-04-12T21:30:52.769Z,9.27
2018-04-12T21:33:19.345Z,9.47
2018-04-12T21:35:45.915Z,9.03
2018-04-12T21:38:12.486Z,9.50
2018-04-12T21:40:39.051Z,8.40
2018-04-12T21:43:05.622Z,10.30
2018-04-12T21:45:32.189Z,7.07
2018-04-12T21:47:59.063Z,8.07
2018-04-12T21:50:25.626Z,12.80
2018-04-12T21:52:52.189Z,7.40
2018-04-12T21:55:18.767Z,7.97
2018-04-12T21:57:45.330Z,9.03
2018-04-12T22:00:11.903Z,10.03
2018-04-12T22:02:38.480Z,10.30
2018-04-12T22:05:05.046Z,9.43
2018-04-12T22:07:31.638Z,9.67
2018-04-12T22:09:58.210Z,10.30
2018-04-12T22:12:24.785Z,14.30
2018-04-12T22:14:51.346Z,8.60
2018-04-12T22:17:17.922Z,8.00
2018-04-12T22:19:44.489Z,9.50
2018-04-12T22:22:11.059Z,9.27
2018-04-12T22:24:37.621Z,9.50
2018-04-12T22:27:04.196Z,9.03
2018-04-12T22:29:30.765Z,10.53
2018-04-12T22:31:57.357Z,10.70
2018-04-12T22:34:23.937Z,13.40
2018-04-12T22:36:50.493Z,9.90
2018-04-12T22:39:17.069Z,9.97
2018-04-12T22:41:43.637Z,10.30
2018-04-12T22:44:10.225Z,12.80
2018-04-12T22:46:36.807Z,9.00
2018-04-12T22:49:03.366Z,10.80
2018-04-12T22:51:29.941Z,10.93
2018-04-12T22:53:56.655Z,10.97
2018-04-12T22:56:23.224Z,9.00
2018-04-12T22:58:49.786Z,12.53
2018-04-12T23:01:16.354Z,9.50
2018-04-12T23:03:42.929Z,10.50
2018-04-12T23:06:09.500Z,11.10
2018-04-12T23:08:36.081Z,10.40
2018-04-12T23:11:02.672Z,11.10
2018-04-12T23:13:29.239Z,10.73
2018-04-12T23:15:55.814Z,13.47
2018-04-12T23:18:22.388Z,13.30
2018-04-12T23:20:48.949Z,9.23
2018-04-12T23:23:15.525Z,9.80
2018-04-12T23:25:42.098Z,10.90
2018-04-12T23:28:08.669Z,10.50
2018-04-12T23:30:35.237Z,10.70
2018-04-12T23:33:01.821Z,9.37
2018-04-12T23:35:28.373Z,10.67
2018-04-12T23:37:54.950Z,12.33
2018-04-12T23:40:21.544Z,10.50
2018-04-12T23:42:48.089Z,10.30
2018-04-12T23:45:14.665Z,12.40
2018-04-12T23:47:42.274Z,13.13
2018-04-12T23:50:08.898Z,14.57
2018-04-12T23:52:35.932Z,13.83
2018-04-12T23:55:02.526Z,11.90
2018-04-12T23:57:29.093Z,12.50
2018-04-12T23:59:55.674Z,11.50
